Time;durP1;ratioP1;P1;durP2;ratioP2;P2;SDS_P1;SDS_P2;PMS_P1;PMS_P2;Temp;Humidity;BMP_temperature;BMP_pressure;BME280_temperature;BME280_humidity;BME280_pressure;Samples;Min_cycle;Max_cycle;Signal;HPM_P1;HPM_P2
2023/07/20 00:02:51;;;;;;;1.65;0.68;;;27.10;60.40;;;;;;10500943;28;20453;-34
2023/07/20 00:07:53;;;;;;;0.95;0.50;;;27.10;60.40;;;;;;10495740;28;20078;-34
2023/07/20 00:12:56;;;;;;;1.08;0.60;;;27.00;60.30;;;;;;10495306;28;20489;-35
2023/07/20 00:17:58;;;;;;;0.43;0.38;;;26.90;60.70;;;;;;10495348;28;20415;-35
2023/07/20 00:23:00;;;;;;;1.40;0.80;;;26.90;60.70;;;;;;10492314;28;20072;-35
2023/07/20 00:28:03;;;;;;;0.73;0.40;;;27.00;60.30;;;;;;10494726;28;20051;-34
2023/07/20 00:33:05;;;;;;;0.50;0.32;;;27.00;60.30;;;;;;10494740;28;20096;-35
2023/07/20 00:38:07;;;;;;;0.43;0.35;;;27.00;60.30;;;;;;10489250;28;20105;-34
2023/07/20 00:43:10;;;;;;;0.32;0.30;;;26.90;60.30;;;;;;10494869;28;20127;-35
2023/07/20 00:48:13;;;;;;;0.47;0.30;;;26.90;60.30;;;;;;10494997;28;20167;-34
2023/07/20 00:53:15;;;;;;;0.95;0.38;;;26.90;60.30;;;;;;10494920;28;20071;-34
2023/07/20 00:58:18;;;;;;;0.57;0.30;;;26.90;60.20;;;;;;10489737;28;20045;-36
2023/07/20 01:03:20;;;;;;;1.08;0.30;;;26.90;60.20;;;;;;10490941;28;20131;-31
2023/07/20 01:08:28;;;;;;;2.97;0.20;;;26.80;60.10;;;;;;10490481;28;20068;-31
2023/07/20 01:13:32;;;;;;;0.47;0.30;;;26.80;60.10;;;;;;10493877;28;20102;-35
2023/07/20 01:18:33;;;;;;;0.85;0.30;;;26.80;60.10;;;;;;10493308;28;20489;-35
2023/07/20 01:24:01;;;;;;;0.95;0.28;;;26.80;60.20;;;;;;10493729;28;20452;-36
2023/07/20 01:29:27;;;;;;;0.30;0.20;;;26.70;60.20;;;;;;10492129;28;20055;-35
2023/07/20 01:34:31;;;;;;;0.70;0.30;;;26.70;60.00;;;;;;10498470;28;20040;-35
2023/07/20 01:39:34;;;;;;;0.38;0.20;;;26.70;60.00;;;;;;10491173;28;20080;-35
2023/07/20 01:44:37;;;;;;;1.13;0.28;;;26.70;60.00;;;;;;10491441;28;20044;-35
2023/07/20 01:49:40;;;;;;;0.28;0.10;;;26.60;59.90;;;;;;10491846;28;20125;-36
2023/07/20 01:54:42;;;;;;;0.32;0.00;;;26.60;59.90;;;;;;10492562;28;20135;-36
2023/07/20 01:59:44;;;;;;;0.65;0.10;;;26.60;60.00;;;;;;10491512;28;20045;-36
2023/07/20 02:04:47;;;;;;;0.77;0.10;;;26.60;59.90;;;;;;10487244;28;20052;-35
2023/07/20 02:09:49;;;;;;;0.10;0.10;;;26.60;59.90;;;;;;10492489;28;20749;-35
2023/07/20 02:14:51;;;;;;;0.35;0.20;;;26.50;59.80;;;;;;10491140;28;20123;-35
2023/07/20 02:19:55;;;;;;;0.22;0.10;;;26.50;59.80;;;;;;10491837;28;20481;-33
2023/07/20 02:24:57;;;;;;;2.47;0.20;;;26.50;59.80;;;;;;10494401;28;20044;-35
2023/07/20 02:29:59;;;;;;;0.45;0.22;;;26.50;59.80;;;;;;10490973;28;20131;-35
2023/07/20 02:35:03;;;;;;;0.28;0.10;;;26.40;59.80;;;;;;10496943;28;20044;-35
2023/07/20 02:40:07;;;;;;;0.10;0.10;;;26.40;59.70;;;;;;10485004;28;20044;-35
2023/07/20 02:45:09;;;;;;;0.68;0.10;;;26.40;59.70;;;;;;10489465;28;20049;-35
2023/07/20 02:50:13;;;;;;;0.10;0.10;;;26.40;59.60;;;;;;10490502;28;20147;-34
2023/07/20 02:55:15;;;;;;;0.10;0.10;;;26.40;59.60;;;;;;10479917;28;20037;-35
2023/07/20 03:15:31;;;;;;;0.98;0.20;;;26.30;59.00;;;;;;10555777;27;20117;-35
2023/07/20 03:20:33;;;;;;;0.30;0.20;;;26.20;59.60;;;;;;10520509;28;20048;-34
2023/07/20 03:25:37;;;;;;;0.85;0.20;;;26.10;59.60;;;;;;10531857;28;20078;-34
2023/07/20 03:30:40;;;;;;;0.30;0.20;;;26.10;59.50;;;;;;10519147;28;20052;-35
2023/07/20 03:35:43;;;;;;;0.20;0.20;;;26.10;59.50;;;;;;10536209;28;20035;-34
2023/07/20 03:40:50;;;;;;;1.10;0.30;;;26.10;59.50;;;;;;10524244;28;20143;-35
2023/07/20 03:45:56;;;;;;;0.32;0.25;;;26.10;59.50;;;;;;10542137;28;20044;-33
2023/07/20 03:50:58;;;;;;;0.45;0.40;;;26.10;59.40;;;;;;10524460;28;20121;-36
2023/07/20 03:55:59;;;;;;;0.43;0.35;;;26.10;59.40;;;;;;10538389;28;20393;-35
2023/07/20 04:01:02;;;;;;;0.43;0.30;;;26.00;59.40;;;;;;10523609;28;20508;-35
2023/07/20 04:06:04;;;;;;;2.28;0.47;;;26.00;59.30;;;;;;10525157;28;20207;-36
2023/07/20 04:11:06;;;;;;;1.23;0.40;;;26.00;59.30;;;;;;10530295;28;20048;-34
2023/07/20 04:16:09;;;;;;;0.20;0.20;;;26.00;59.40;;;;;;10542178;28;20085;-35
2023/07/20 04:21:11;;;;;;;1.77;0.40;;;26.00;59.40;;;;;;10532469;28;20492;-34
2023/07/20 04:26:14;;;;;;;1.08;0.50;;;26.00;59.40;;;;;;10496109;28;20545;-35
2023/07/20 04:31:17;;;;;;;0.82;0.50;;;25.90;59.40;;;;;;10495275;28;20200;-34
2023/07/20 04:36:20;;;;;;;1.02;0.50;;;25.90;59.40;;;;;;10496980;28;20622;-35
2023/07/20 04:41:21;;;;;;;2.03;0.30;;;26.00;59.40;;;;;;10491182;28;20052;-34
2023/07/20 04:46:25;;;;;;;0.75;0.47;;;26.00;59.30;;;;;;10489842;28;20116;-35
2023/07/20 04:51:27;;;;;;;0.70;0.50;;;26.00;59.40;;;;;;10497896;28;20056;-34
2023/07/20 04:56:29;;;;;;;1.73;0.50;;;25.90;59.40;;;;;;10498888;28;20459;-34
2023/07/20 05:01:32;;;;;;;2.90;0.57;;;26.00;59.30;;;;;;10499920;28;20071;-34
2023/07/20 05:06:33;;;;;;;2.10;0.60;;;26.00;59.30;;;;;;10498512;28;20498;-35
2023/07/20 05:11:35;;;;;;;1.13;0.50;;;25.90;59.30;;;;;;10491635;28;20211;-34
2023/07/20 05:16:38;;;;;;;1.52;0.70;;;26.00;59.40;;;;;;10491543;28;20083;-35
2023/07/20 05:21:40;;;;;;;0.90;0.40;;;25.90;59.30;;;;;;10495178;28;20052;-34
2023/07/20 05:26:42;;;;;;;1.38;0.60;;;26.00;59.30;;;;;;10490607;28;20129;-32
2023/07/20 05:31:45;;;;;;;2.42;0.85;;;26.00;59.30;;;;;;10494817;28;20183;-35
2023/07/20 05:36:47;;;;;;;2.55;0.68;;;26.00;59.20;;;;;;10490378;28;20106;-35
2023/07/20 05:41:49;;;;;;;1.15;0.65;;;26.00;59.30;;;;;;10496101;28;20129;-35
2023/07/20 05:46:52;;;;;;;1.08;0.50;;;26.00;59.20;;;;;;10485974;28;20163;-34
2023/07/20 05:51:56;;;;;;;0.40;0.40;;;26.00;59.10;;;;;;10487188;28;20091;-35
2023/07/20 05:56:58;;;;;;;1.67;0.70;;;26.00;59.10;;;;;;10493014;28;20105;-34
2023/07/20 06:02:01;;;;;;;1.27;0.65;;;26.00;59.00;;;;;;10485832;28;20139;-35
2023/07/20 06:07:03;;;;;;;1.42;0.40;;;26.00;59.00;;;;;;10499690;28;20110;-35
2023/07/20 06:12:06;;;;;;;2.35;0.60;;;26.00;58.90;;;;;;10486827;28;20092;-35
2023/07/20 06:17:09;;;;;;;0.75;0.45;;;26.00;58.70;;;;;;10500045;28;20048;-35
2023/07/20 06:22:11;;;;;;;2.25;0.70;;;26.00;58.70;;;;;;10490507;28;20496;-35
2023/07/20 06:27:13;;;;;;;0.60;0.45;;;26.10;58.60;;;;;;10496134;28;20143;-35
2023/07/20 06:32:16;;;;;;;1.13;0.80;;;26.10;58.60;;;;;;10493439;28;20527;-36
2023/07/20 06:37:19;;;;;;;1.77;0.77;;;26.10;58.50;;;;;;10498707;28;20154;-35
2023/07/20 06:42:21;;;;;;;1.73;0.43;;;25.80;58.60;;;;;;10488009;28;20140;-34
2023/07/20 06:47:25;;;;;;;2.17;1.13;;;26.00;58.20;;;;;;10490042;28;20068;-34
2023/07/20 06:52:26;;;;;;;2.25;1.10;;;25.80;58.80;;;;;;10492697;28;20436;-35
2023/07/20 06:57:28;;;;;;;2.70;1.13;;;25.90;58.60;;;;;;10499004;28;20063;-35
2023/07/20 07:02:31;;;;;;;3.40;1.23;;;25.80;58.50;;;;;;10488130;28;20098;-35
2023/07/20 07:07:33;;;;;;;3.92;1.48;;;25.10;60.80;;;;;;10496107;28;20068;-36
2023/07/20 07:12:35;;;;;;;6.57;1.60;;;24.50;62.30;;;;;;10497918;28;20063;-35
2023/07/20 07:17:39;;;;;;;4.05;1.20;;;25.70;59.50;;;;;;10491553;28;20527;-36
2023/07/20 07:22:43;;;;;;;3.60;1.48;;;24.30;63.40;;;;;;10489171;28;20051;-36
2023/07/20 07:27:45;;;;;;;3.53;2.13;;;25.80;59.10;;;;;;10486982;28;20102;-35
2023/07/20 07:32:48;;;;;;;4.63;1.50;;;25.60;59.20;;;;;;10484656;28;20079;-36
2023/07/20 07:37:50;;;;;;;3.05;1.65;;;24.10;63.60;;;;;;10466507;28;20448;-36
2023/07/20 07:42:52;;;;;;;3.00;1.25;;;25.70;59.30;;;;;;10476732;28;20447;-35
2023/07/20 07:47:55;;;;;;;1.02;0.60;;;26.00;58.10;;;;;;10484856;28;20520;-35
2023/07/20 07:52:57;;;;;;;2.90;0.88;;;25.70;56.30;;;;;;10485066;28;20140;-35
2023/07/20 07:57:59;;;;;;;2.67;0.52;;;26.00;58.10;;;;;;10490481;28;20079;-36
2023/07/20 08:03:02;;;;;;;1.77;1.05;;;26.10;57.40;;;;;;10497695;28;20045;-34
2023/07/20 08:08:04;;;;;;;1.30;0.70;;;25.90;57.90;;;;;;10503377;28;20131;-35
2023/07/20 08:13:06;;;;;;;2.35;0.93;;;24.40;60.20;;;;;;10504842;28;20053;-36
2023/07/20 08:18:09;;;;;;;4.05;1.30;;;24.90;60.60;;;;;;10487042;28;20044;-35
2023/07/20 08:23:11;;;;;;;1.00;0.55;;;26.10;57.60;;;;;;10491171;28;20561;-36
2023/07/20 08:28:15;;;;;;;1.92;0.80;;;25.80;56.60;;;;;;10501882;28;20147;-35
2023/07/20 08:33:20;;;;;;;1.55;1.13;;;25.20;59.20;;;;;;10495128;28;20144;-35
2023/07/20 08:38:21;;;;;;;2.67;0.75;;;26.30;57.20;;;;;;10494664;28;20406;-34
2023/07/20 08:43:24;;;;;;;4.55;0.60;;;26.40;56.50;;;;;;10498727;28;20520;-35
2023/07/20 08:48:28;;;;;;;2.10;0.70;;;26.50;56.30;;;;;;10482227;28;20377;-35
2023/07/20 08:53:32;;;;;;;1.55;0.40;;;24.40;56.50;;;;;;10493213;28;20052;-35
2023/07/20 08:58:36;;;;;;;1.27;0.55;;;25.40;58.70;;;;;;10495591;28;20459;-34
2023/07/20 09:03:40;;;;;;;1.15;0.65;;;25.00;57.20;;;;;;10494694;28;20518;-35
2023/07/20 09:08:42;;;;;;;2.30;0.60;;;25.50;59.40;;;;;;10486348;28;20078;-35
2023/07/20 09:13:44;;;;;;;1.20;0.70;;;24.90;60.40;;;;;;10472735;28;20056;-35
2023/07/20 09:18:47;;;;;;;0.63;0.50;;;26.40;57.00;;;;;;10488961;28;20135;-35
2023/07/20 09:23:53;;;;;;;1.70;0.50;;;25.80;57.40;;;;;;10490408;28;20055;-36
2023/07/20 09:28:55;;;;;;;1.60;0.60;;;25.70;58.50;;;;;;10499807;28;20036;-34
2023/07/20 09:33:59;;;;;;;0.70;0.40;;;24.70;59.50;;;;;;10497725;28;20096;-35
2023/07/20 09:39:01;;;;;;;1.38;0.60;;;25.20;58.00;;;;;;10498830;28;20437;-35
2023/07/20 09:44:03;;;;;;;2.10;0.30;;;25.80;57.70;;;;;;10484646;28;20462;-35
2023/07/20 09:49:09;;;;;;;1.67;0.63;;;25.50;53.80;;;;;;10496024;28;20404;-35
2023/07/20 09:54:12;;;;;;;0.60;0.30;;;25.00;60.10;;;;;;10493322;28;20083;-36
2023/07/20 09:59:14;;;;;;;2.38;0.63;;;23.00;64.90;;;;;;10507139;28;20089;-36
2023/07/20 10:04:19;;;;;;;1.25;0.70;;;25.20;58.20;;;;;;10496687;28;20060;-35
2023/07/20 10:09:23;;;;;;;1.17;0.43;;;24.30;62.60;;;;;;10492605;28;20048;-36
2023/07/20 10:14:27;;;;;;;1.52;0.70;;;24.80;59.30;;;;;;10504835;28;20064;-35
2023/07/20 10:19:44;;;;;;;0.88;0.63;;;23.60;64.30;;;;;;10491545;28;20139;-36
2023/07/20 10:24:47;;;;;;;0.52;0.30;;;26.00;58.30;;;;;;10497506;28;20048;-36
2023/07/20 10:29:50;;;;;;;0.65;0.60;;;24.60;56.20;;;;;;10491362;28;20105;-34
2023/07/20 10:34:54;;;;;;;1.02;0.40;;;25.50;59.00;;;;;;10490573;28;20098;-35
2023/07/20 10:39:57;;;;;;;2.00;0.65;;;25.70;57.00;;;;;;10498440;28;20135;-35
2023/07/20 10:45:01;;;;;;;0.93;0.40;;;24.90;59.80;;;;;;10490947;28;20041;-32
2023/07/20 10:50:06;;;;;;;2.08;0.50;;;25.90;57.00;;;;;;10491127;28;20464;-36
2023/07/20 10:55:16;;;;;;;1.02;0.65;;;25.60;57.90;;;;;;10489950;28;20059;-35
2023/07/20 11:00:22;;;;;;;2.85;0.68;;;26.20;54.20;;;;;;10489343;28;20147;-35
2023/07/20 11:05:36;;;;;;;1.15;0.40;;;25.80;58.00;;;;;;10485863;28;20064;-35
2023/07/20 11:10:38;;;;;;;0.38;0.30;;;25.90;58.30;;;;;;10480177;28;20105;-35
2023/07/20 11:15:47;;;;;;;0.93;0.60;;;25.80;54.70;;;;;;10478440;28;20068;-35
2023/07/20 11:20:53;;;;;;;0.85;0.40;;;26.10;55.60;;;;;;10511229;28;20052;-36
2023/07/20 11:25:55;;;;;;;0.63;0.40;;;23.50;57.90;;;;;;10485194;28;20133;-35
2023/07/20 11:30:57;;;;;;;;;;;24.30;63.20;;;;;;10484657;28;20072;-35
2023/07/20 11:36:00;;;;;;;0.43;0.40;;;24.40;60.10;;;;;;10506253;28;20059;-35
2023/07/20 11:41:04;;;;;;;0.65;0.50;;;25.30;55.90;;;;;;10494719;28;20129;-36
2023/07/20 11:46:06;;;;;;;2.95;0.47;;;26.30;57.80;;;;;;10501898;28;20143;-35
2023/07/20 11:51:16;;;;;;;0.43;0.30;;;25.50;56.70;;;;;;10485745;28;20730;-36
2023/07/20 11:56:17;;;;;;;1.13;0.40;;;26.00;53.10;;;;;;10492109;28;20056;-35
2023/07/20 12:01:20;;;;;;;0.60;0.40;;;25.80;57.30;;;;;;10498107;28;20068;-35
2023/07/20 12:06:26;;;;;;;2.30;0.40;;;26.10;55.00;;;;;;10492538;28;20072;-33
2023/07/20 12:11:35;;;;;;;0.70;0.40;;;26.60;56.10;;;;;;10492415;28;20462;-35
2023/07/20 12:16:38;;;;;;;2.53;0.30;;;24.90;57.80;;;;;;10513023;28;20079;-35
2023/07/20 12:21:43;;;;;;;0.75;0.40;;;25.50;56.40;;;;;;10487859;28;20060;-35
2023/07/20 12:26:44;;;;;;;0.45;0.40;;;25.40;59.30;;;;;;10499335;28;20044;-35
2023/07/20 12:31:46;;;;;;;0.45;0.38;;;26.00;58.50;;;;;;10506276;28;20108;-35
2023/07/20 12:36:51;;;;;;;2.05;0.50;;;26.10;52.30;;;;;;10500095;28;20066;-36
2023/07/20 12:41:53;;;;;;;0.20;0.20;;;27.00;55.80;;;;;;10501149;28;20135;-35
2023/07/20 12:46:56;;;;;;;0.35;0.35;;;26.50;55.80;;;;;;10509208;28;20072;-35
2023/07/20 12:51:59;;;;;;;1.95;0.30;;;26.10;57.60;;;;;;10488539;28;20045;-35
2023/07/20 12:57:03;;;;;;;0.63;0.30;;;25.30;55.00;;;;;;10485653;28;20470;-34
2023/07/20 13:02:06;;;;;;;1.08;0.30;;;25.70;53.10;;;;;;10498936;28;20048;-35
2023/07/20 13:07:12;;;;;;;0.57;0.40;;;25.80;53.00;;;;;;10517226;28;20530;-36
2023/07/20 13:12:14;;;;;;;0.82;0.30;;;27.00;52.30;;;;;;10504376;28;20113;-35
2023/07/20 13:17:15;;;;;;;0.40;0.30;;;27.60;55.30;;;;;;10493467;28;20094;-35
2023/07/20 13:22:19;;;;;;;0.25;0.20;;;26.70;55.50;;;;;;10491572;28;20041;-34
2023/07/20 13:27:21;;;;;;;1.38;0.30;;;27.30;56.20;;;;;;10507519;28;20094;-35
2023/07/20 13:32:23;;;;;;;0.63;0.20;;;26.90;53.30;;;;;;10489605;28;20519;-34
2023/07/20 13:37:26;;;;;;;0.40;0.30;;;28.10;54.40;;;;;;10499855;28;20152;-35
2023/07/20 13:42:28;;;;;;;0.30;0.20;;;27.30;57.10;;;;;;10503651;28;20382;-35
2023/07/20 13:47:30;;;;;;;0.75;0.13;;;26.40;53.40;;;;;;10500855;28;20047;-36
2023/07/20 13:52:34;;;;;;;0.35;0.17;;;28.00;54.10;;;;;;10491117;28;20094;-41
2023/07/20 13:57:36;;;;;;;0.20;0.20;;;27.60;49.10;;;;;;10506665;28;20047;-36
2023/07/20 14:02:37;;;;;;;0.65;0.20;;;27.90;56.00;;;;;;10491958;28;20072;-35
2023/07/20 14:07:41;;;;;;;0.93;0.30;;;28.20;55.40;;;;;;10477407;28;20041;-36
2023/07/20 14:12:44;;;;;;;1.65;0.22;;;28.70;54.10;;;;;;10485020;28;20087;-35
2023/07/20 14:17:46;;;;;;;0.15;0.10;;;29.10;53.10;;;;;;10483653;28;20102;-35
2023/07/20 14:22:50;;;;;;;0.60;0.22;;;28.40;54.50;;;;;;10484119;28;20068;-35
2023/07/20 14:27:52;;;;;;;0.93;0.28;;;27.90;50.90;;;;;;10493483;28;20062;-35
2023/07/20 14:32:53;;;;;;;2.45;0.30;;;28.20;55.50;;;;;;10490571;28;20793;-35
2023/07/20 14:37:57;;;;;;;0.43;0.17;;;28.30;51.30;;;;;;10491946;28;20477;-35
2023/07/20 14:43:00;;;;;;;0.52;0.22;;;29.30;52.50;;;;;;10488479;28;20078;-36
2023/07/20 14:48:02;;;;;;;1.25;0.25;;;28.80;53.50;;;;;;10489665;28;20040;-36
2023/07/20 14:53:05;;;;;;;0.60;0.22;;;28.80;52.30;;;;;;10495416;28;20497;-36
2023/07/20 14:58:07;;;;;;;2.47;0.63;;;29.40;53.30;;;;;;10493380;28;20051;-36
2023/07/20 15:03:09;;;;;;;1.27;0.63;;;29.70;52.30;;;;;;10485658;28;20499;-35
2023/07/20 15:08:13;;;;;;;0.98;0.20;;;29.50;52.60;;;;;;10482338;28;20044;-36
2023/07/20 15:13:15;;;;;;;0.63;0.30;;;29.70;51.20;;;;;;10497451;28;20124;-35
2023/07/20 15:18:17;;;;;;;0.22;0.20;;;29.40;48.80;;;;;;10485850;28;20068;-36
2023/07/20 15:23:20;;;;;;;2.72;0.40;;;29.20;51.40;;;;;;10498282;28;20603;-36
2023/07/20 15:28:23;;;;;;;2.58;0.30;;;29.50;48.50;;;;;;10470293;28;20049;-35
2023/07/20 15:33:25;;;;;;;1.20;0.45;;;29.90;52.00;;;;;;10497313;28;20056;-34
2023/07/20 15:38:28;;;;;;;0.52;0.30;;;30.00;52.30;;;;;;10492562;28;20080;-35
2023/07/20 15:43:31;;;;;;;1.00;0.20;;;29.90;46.80;;;;;;10492551;28;20045;-35
2023/07/20 15:48:33;;;;;;;1.50;0.30;;;30.10;52.40;;;;;;10493452;28;20072;-35
2023/07/20 15:53:36;;;;;;;1.77;0.35;;;29.80;47.20;;;;;;10487962;28;20476;-34
2023/07/20 15:58:38;;;;;;;1.25;0.30;;;30.50;50.70;;;;;;10496390;28;20055;-37
2023/07/20 16:03:40;;;;;;;0.22;0.20;;;30.70;51.20;;;;;;10491523;28;20500;-35
2023/07/20 16:08:43;;;;;;;0.35;0.20;;;30.90;45.60;;;;;;10482252;28;20080;-35
2023/07/20 16:13:45;;;;;;;1.70;0.40;;;30.60;48.70;;;;;;10492058;28;20064;-35
2023/07/20 16:18:49;;;;;;;0.73;0.30;;;30.30;54.50;;;;;;10493464;28;20056;-35
2023/07/20 16:23:52;;;;;;;0.63;0.32;;;30.30;57.60;;;;;;10503266;28;20060;-36
2023/07/20 16:28:54;;;;;;;0.40;0.28;;;31.20;55.90;;;;;;10497297;28;20139;-36
2023/07/20 16:33:56;;;;;;;0.63;0.35;;;31.80;57.30;;;;;;10511988;28;20480;-35
2023/07/20 16:38:59;;;;;;;0.68;0.40;;;31.90;57.40;;;;;;10501157;28;20122;-36
2023/07/20 16:44:01;;;;;;;1.63;0.60;;;31.90;56.40;;;;;;10499969;28;20060;-36
2023/07/20 16:49:06;;;;;;;0.60;0.30;;;32.30;55.80;;;;;;10498883;28;20052;-35
2023/07/20 16:54:10;;;;;;;0.60;0.35;;;32.00;49.00;;;;;;10498019;28;20501;-36
2023/07/20 16:59:12;;;;;;;1.50;0.85;;;32.30;56.70;;;;;;10486263;28;20098;-36
2023/07/20 17:04:14;;;;;;;1.92;1.27;;;32.80;57.80;;;;;;10493952;28;20481;-36
2023/07/20 17:09:18;;;;;;;2.15;0.90;;;32.80;59.30;;;;;;10488489;28;20044;-36
2023/07/20 17:14:19;;;;;;;2.15;1.65;;;33.20;45.80;;;;;;10489872;28;20079;-35
2023/07/20 17:19:21;;;;;;;3.85;2.47;;;33.40;60.90;;;;;;10490295;28;20752;-35
2023/07/20 17:24:25;;;;;;;2.50;1.63;;;32.70;58.90;;;;;;10487283;28;20079;-35
2023/07/20 17:29:27;;;;;;;0.93;0.80;;;32.10;58.60;;;;;;10498506;28;20049;-36
2023/07/20 17:34:29;;;;;;;4.97;2.75;;;32.30;53.80;;;;;;10497931;28;20547;-34
2023/07/20 17:39:34;;;;;;;3.75;0.70;;;32.80;56.50;;;;;;10492877;28;20132;-35
2023/07/20 17:44:36;;;;;;;4.00;2.38;;;32.30;51.00;;;;;;10493135;28;20093;-35
2023/07/20 17:49:38;;;;;;;1.77;1.10;;;32.60;53.80;;;;;;10496023;28;20033;-36
2023/07/20 17:54:41;;;;;;;3.05;1.60;;;32.80;52.70;;;;;;10476622;28;20056;-35
2023/07/20 17:59:43;;;;;;;2.42;1.38;;;32.70;52.40;;;;;;10502583;28;20055;-36
2023/07/20 18:04:45;;;;;;;1.50;1.25;;;31.90;53.10;;;;;;10504458;28;20131;-35
2023/07/20 18:09:48;;;;;;;0.80;0.77;;;32.50;52.60;;;;;;10491275;28;20143;-36
2023/07/20 18:14:52;;;;;;;0.68;0.60;;;32.50;51.80;;;;;;10497032;28;20091;-37
2023/07/20 18:19:54;;;;;;;2.63;0.90;;;32.50;51.10;;;;;;10518151;28;20511;-37
2023/07/20 18:24:58;;;;;;;0.60;0.30;;;32.50;50.60;;;;;;10495093;28;20049;-35
2023/07/20 18:29:59;;;;;;;1.63;0.70;;;32.40;50.30;;;;;;10505496;28;20040;-36
2023/07/20 18:35:02;;;;;;;1.35;0.32;;;32.50;50.10;;;;;;10495078;28;20092;-37
2023/07/20 18:40:07;;;;;;;1.42;0.43;;;32.30;50.00;;;;;;10495448;28;20087;-37
2023/07/20 18:45:09;;;;;;;0.30;0.30;;;32.20;50.10;;;;;;10489335;28;20048;-37
2023/07/20 18:50:12;;;;;;;0.70;0.40;;;32.20;49.90;;;;;;10504077;28;20053;-37
2023/07/20 18:55:15;;;;;;;0.63;0.20;;;32.10;50.00;;;;;;10491218;28;20095;-37
2023/07/20 19:00:18;;;;;;;1.65;0.30;;;32.00;50.00;;;;;;10494307;28;20072;-36
2023/07/20 19:05:20;;;;;;;2.60;0.40;;;31.90;49.70;;;;;;10496342;28;20552;-37
2023/07/20 19:10:23;;;;;;;1.10;0.65;;;31.80;49.80;;;;;;10493765;28;20048;-36
2023/07/20 19:15:25;;;;;;;0.82;0.40;;;31.70;49.60;;;;;;10500790;28;20084;-36
2023/07/20 19:20:27;;;;;;;1.13;0.40;;;30.80;50.60;;;;;;10483970;28;20064;-36
2023/07/20 19:25:31;;;;;;;0.45;0.40;;;31.50;50.50;;;;;;10494433;28;20483;-36
2023/07/20 19:30:33;;;;;;;1.58;0.60;;;31.00;51.30;;;;;;10483850;28;20132;-36
2023/07/20 19:35:35;;;;;;;2.20;0.95;;;31.40;50.40;;;;;;10483938;28;20136;-37
2023/07/20 19:40:39;;;;;;;1.60;0.50;;;31.40;50.20;;;;;;10482664;28;20470;-37
2023/07/20 19:45:41;;;;;;;1.23;0.50;;;31.50;50.50;;;;;;10485321;28;20048;-35
2023/07/20 19:50:46;;;;;;;0.60;0.32;;;31.50;50.50;;;;;;10482363;28;20521;-36
2023/07/20 19:55:49;;;;;;;1.00;0.50;;;31.40;50.60;;;;;;10486777;28;20412;-35
2023/07/20 20:00:51;;;;;;;0.70;0.52;;;31.30;50.80;;;;;;10496800;28;20405;-36
2023/07/20 20:05:53;;;;;;;0.50;0.50;;;31.30;51.10;;;;;;10495273;28;20553;-37
2023/07/20 20:10:57;;;;;;;0.90;0.70;;;31.20;51.00;;;;;;10481928;28;20048;-36
2023/07/20 20:15:59;;;;;;;1.30;0.40;;;31.20;51.30;;;;;;10495734;28;20382;-37
2023/07/20 20:21:01;;;;;;;0.82;0.40;;;31.10;51.20;;;;;;10496292;28;20048;-35
2023/07/20 20:26:04;;;;;;;0.65;0.60;;;31.10;51.10;;;;;;10494014;28;20049;-37
2023/07/20 20:31:06;;;;;;;0.77;0.50;;;31.00;50.90;;;;;;10497426;28;20040;-42
2023/07/20 20:36:08;;;;;;;0.80;0.45;;;30.90;50.90;;;;;;10490666;28;20072;-36
2023/07/20 20:41:11;;;;;;;2.10;0.50;;;30.90;50.80;;;;;;10502003;28;20058;-37
2023/07/20 20:46:19;;;;;;;0.47;0.40;;;30.80;50.80;;;;;;10493736;28;20447;-37
2023/07/20 20:51:21;;;;;;;0.52;0.43;;;30.70;50.90;;;;;;10492520;28;20040;-36
2023/07/20 20:56:24;;;;;;;0.32;0.22;;;30.70;50.80;;;;;;10496836;28;20093;-36
2023/07/20 21:01:27;;;;;;;1.35;0.50;;;30.50;50.60;;;;;;10499574;28;20037;-36
2023/07/20 21:06:29;;;;;;;0.93;0.30;;;30.30;50.60;;;;;;10490914;28;20036;-37
2023/07/20 21:11:32;;;;;;;1.10;0.40;;;30.30;50.40;;;;;;10474068;28;20084;-37
2023/07/20 21:16:34;;;;;;;0.32;0.20;;;30.20;50.30;;;;;;10480650;28;20053;-36
2023/07/20 21:21:36;;;;;;;0.65;0.25;;;30.20;50.20;;;;;;10500577;28;20040;-36
2023/07/20 21:26:39;;;;;;;0.20;0.10;;;30.10;50.10;;;;;;10494209;28;20101;-36
2023/07/20 21:31:41;;;;;;;1.85;0.20;;;30.00;50.20;;;;;;10491550;28;20051;-37
2023/07/20 21:36:43;;;;;;;0.40;0.30;;;30.00;50.20;;;;;;10492807;28;20056;-36
2023/07/20 21:41:47;;;;;;;1.20;0.40;;;29.90;50.20;;;;;;10489723;28;20048;-36
2023/07/20 21:46:50;;;;;;;0.55;0.28;;;29.80;50.30;;;;;;10491225;28;20044;-35
2023/07/20 21:51:52;;;;;;;0.57;0.20;;;29.80;50.20;;;;;;10485529;28;20094;-35
2023/07/20 21:56:55;;;;;;;0.38;0.30;;;29.70;50.20;;;;;;10487527;28;20056;-34
2023/07/20 22:01:57;;;;;;;0.10;0.10;;;29.70;50.40;;;;;;10500269;28;20056;-36
2023/07/20 22:06:59;;;;;;;0.30;0.30;;;29.60;50.30;;;;;;10495221;28;20406;-35
2023/07/20 22:12:03;;;;;;;0.68;0.20;;;29.60;50.30;;;;;;10501932;28;20074;-35
2023/07/20 22:17:06;;;;;;;1.95;0.30;;;29.50;50.40;;;;;;10499435;28;20113;-35
2023/07/20 22:22:08;;;;;;;0.63;0.40;;;29.40;50.30;;;;;;10505366;28;20047;-36
2023/07/20 22:27:11;;;;;;;1.05;0.25;;;29.40;50.40;;;;;;10494647;28;20072;-35
2023/07/20 22:32:13;;;;;;;0.98;0.20;;;29.30;50.40;;;;;;10491081;28;20084;-35
2023/07/20 22:37:15;;;;;;;0.60;0.28;;;29.30;50.50;;;;;;10495385;28;20543;-35
2023/07/20 22:42:19;;;;;;;0.40;0.20;;;29.20;50.40;;;;;;10498898;28;20072;-35
2023/07/20 22:47:21;;;;;;;0.28;0.20;;;29.20;50.60;;;;;;10496299;28;20057;-35
2023/07/20 22:52:23;;;;;;;0.75;0.47;;;29.10;50.50;;;;;;10500505;28;20123;-34
2023/07/20 22:57:26;;;;;;;0.38;0.30;;;29.10;50.60;;;;;;10493084;28;20246;-36
2023/07/20 23:02:28;;;;;;;0.47;0.20;;;29.10;50.70;;;;;;10482989;28;20040;-36
2023/07/20 23:07:31;;;;;;;0.20;0.20;;;29.00;50.60;;;;;;10493516;28;20036;-36
2023/07/20 23:12:35;;;;;;;0.38;0.30;;;28.90;50.60;;;;;;10502076;28;20053;-37
2023/07/20 23:17:37;;;;;;;0.85;0.30;;;28.90;50.60;;;;;;10502187;28;20051;-36
2023/07/20 23:22:38;;;;;;;0.57;0.30;;;28.80;50.60;;;;;;10491273;28;20044;-34
2023/07/20 23:27:42;;;;;;;0.57;0.38;;;28.80;50.70;;;;;;10511483;28;20071;-36
2023/07/20 23:32:44;;;;;;;2.60;0.50;;;28.80;50.80;;;;;;10498180;28;20147;-36
2023/07/20 23:37:47;;;;;;;0.30;0.20;;;28.70;50.70;;;;;;10503901;28;20480;-36
2023/07/20 23:42:50;;;;;;;0.50;0.40;;;28.70;50.90;;;;;;10498437;28;20131;-37
2023/07/20 23:47:52;;;;;;;0.35;0.30;;;28.60;50.80;;;;;;10502255;28;20068;-36
2023/07/20 23:52:54;;;;;;;0.50;0.40;;;28.60;50.80;;;;;;10499208;28;20139;-35
2023/07/20 23:57:58;;;;;;;2.28;0.35;;;28.60;50.90;;;;;;10498893;28;21307;-38
